Terminal Aerodrome Forecast
Issued by NWS

Home | Current Version | Previous Version | Text Only | Print | Product List | Glossary On
Versions: 1 2 3 4 5 6 7 8 9 10 11 12 13 14 15 16 17 18 19 20 21 22 23 24 25 26 27 28 29 30 31 32 33
000
FTUS45 KGJT 230529
TAFCNY
TAFCNY
TAF
KCNY 230529Z 2306/2406 27005KT P6SM VCSH SCT080 BKN120
      TEMPO 2306/2307 -RA BKN070
     FM230800 12005KT P6SM SCT100
     FM231800 19010KT P6SM SCT080 BKN120
     FM240200 08009KT P6SM SCT080 BKN140=

USA.gov is the U.S. government's official web portal to all federal, state and local government web resources and services.